Time;durP1;ratioP1;P1;durP2;ratioP2;P2;SDS_P1;SDS_P2;PMS_P1;PMS_P2;Temp;Humidity;BMP_temperature;BMP_pressure;BME280_temperature;BME280_humidity;BME280_pressure;Samples;Min_cycle;Max_cycle;Signal;HPM_P1;HPM_P2
2023/12/04 00:01:30;;;;;;;;;;;;;;;-6.22;80.74;98475.31;5025344;28;20317;-79
2023/12/04 00:03:56;;;;;;;;;;;;;;;-6.20;80.73;98473.28;5009638;28;19933;-80
2023/12/04 00:06:23;;;;;;;;;;;;;;;-6.20;80.95;98477.75;5025655;28;19940;-79
2023/12/04 00:08:49;;;;;;;;;;;;;;;-6.22;80.98;98477.97;5004100;28;19990;-75
2023/12/04 00:11:17;;;;;;;;;;;;;;;-6.29;81.03;98493.91;5000940;28;20476;-77
2023/12/04 00:13:43;;;;;;;;;;;;;;;-6.32;81.22;98496.13;5007637;28;20182;-76
2023/12/04 00:16:10;;;;;;;;;;;;;;;-6.33;81.18;98499.81;5024081;28;19929;-76
2023/12/04 00:18:39;;;;;;;;;;;;;;;-6.36;80.88;98505.53;5013655;28;20554;-79
2023/12/04 00:21:05;;;;;;;;;;;;;;;-6.44;81.13;98491.38;5007981;28;19975;-77
2023/12/04 00:23:31;;;;;;;;;;;;;;;-6.52;80.77;98507.50;5026209;28;19936;-76
2023/12/04 00:25:58;;;;;;;;;;;;;;;-6.63;81.13;98503.56;5027745;28;20032;-75
2023/12/04 00:28:28;;;;;;;;;;;;;;;-6.65;81.27;98518.84;5026049;28;19978;-76
2023/12/04 00:30:54;;;;;;;;;;;;;;;-6.70;81.43;98514.16;5041717;28;19910;-79
2023/12/04 00:33:20;;;;;;;;;;;;;;;-6.72;81.76;98518.81;5057722;28;20000;-79
2023/12/04 00:35:46;;;;;;;;;;;;;;;-6.77;81.83;98526.56;5040437;28;19929;-80
2023/12/04 00:38:12;;;;;;;;;;;;;;;-6.75;82.30;98531.69;5040339;28;19929;-80
2023/12/04 00:40:38;;;;;;;;;;;;;;;-6.76;81.99;98532.72;5037773;28;19992;-80
2023/12/04 00:43:03;;;;;;;;;;;;;;;-6.77;81.68;98539.84;5027537;28;19972;-80
2023/12/04 00:45:31;;;;;;;;;;;;;;;-6.81;81.44;98527.13;5024523;28;19960;-79
2023/12/04 00:47:57;;;;;;;;;;;;;;;-6.84;81.41;98537.13;5023367;28;20016;-80
2023/12/04 00:50:23;;;;;;;;;;;;;;;-6.85;81.47;98538.16;5026335;28;20035;-79
2023/12/04 00:52:48;;;;;;;;;;;;;;;-6.88;81.69;98546.53;5022825;28;19975;-80
2023/12/04 00:55:15;;;;;;;;;;;;;;;-6.79;81.97;98551.69;5006554;28;19929;-80
2023/12/04 00:57:40;;;;;;;;;;;;;;;-6.74;81.66;98547.44;5025078;28;20020;-79
2023/12/04 01:00:07;;;;;;;;;;;;;;;-6.68;81.71;98558.34;5022329;28;20375;-79
2023/12/04 01:02:34;;;;;;;;;;;;;;;-6.65;81.48;98544.63;5024718;28;19937;-79
2023/12/04 01:05:00;;;;;;;;;;;;;;;-6.63;81.18;98551.41;5007952;28;19952;-79
2023/12/04 01:07:27;;;;;;;;;;;;;;;-6.65;81.28;98555.28;5025115;28;20412;-79
2023/12/04 01:09:53;;;;;;;;;;;;;;;-6.79;81.13;98530.41;5026274;28;19936;-79
2023/12/04 01:12:18;;;;;;;;;;;;;;;-6.65;81.06;98571.22;5040639;28;20400;-79
2023/12/04 01:14:44;;;;;;;;;;;;;;;-6.65;81.18;98577.34;4999519;28;19953;-79
2023/12/04 01:17:10;;;;;;;;;;;;;;;-6.61;81.61;98573.31;5026087;28;19953;-79
2023/12/04 01:19:38;;;;;;;;;;;;;;;-6.53;81.67;98574.19;5038552;28;19929;-80
2023/12/04 01:22:05;;;;;;;;;;;;;;;-6.50;81.82;98584.44;5009176;28;19937;-80
2023/12/04 01:24:31;;;;;;;;;;;;;;;-6.57;81.85;98577.22;5027955;28;19935;-80
2023/12/04 01:26:57;;;;;;;;;;;;;;;-6.59;82.04;98578.44;5012789;28;20024;-80
2023/12/04 01:29:22;;;;;;;;;;;;;;;-6.64;81.65;98579.00;5028529;28;19960;-80
2023/12/04 01:31:48;;;;;;;;;;;;;;;-6.71;81.74;98581.63;5026491;28;19952;-80
2023/12/04 01:34:14;;;;;;;;;;;;;;;-6.76;82.17;98577.91;5025439;28;19936;-80
2023/12/04 01:36:41;;;;;;;;;;;;;;;-6.76;81.63;98588.53;5025410;28;19929;-79
2023/12/04 01:39:07;;;;;;;;;;;;;;;-6.77;81.17;98587.72;5022762;28;19929;-76
2023/12/04 01:41:33;;;;;;;;;;;;;;;-6.75;81.50;98583.00;5023834;28;19933;-77
2023/12/04 01:43:59;;;;;;;;;;;;;;;-6.78;80.97;98580.75;5024819;28;19935;-80
2023/12/04 01:46:25;;;;;;;;;;;;;;;-6.87;81.00;98585.38;5006501;28;20293;-80
2023/12/04 01:48:51;;;;;;;;;;;;;;;-6.91;81.58;98583.28;5024625;28;19987;-77
2023/12/04 01:51:19;;;;;;;;;;;;;;;-6.91;81.61;98584.13;5024178;28;19929;-77
2023/12/04 01:53:47;;;;;;;;;;;;;;;-6.88;81.64;98581.06;5023187;28;19933;-78
2023/12/04 01:56:14;;;;;;;;;;;;;;;-6.88;81.41;98588.22;5021640;28;19972;-78
2023/12/04 01:58:40;;;;;;;;;;;;;;;-6.87;81.18;98579.22;5021093;28;19936;-77
2023/12/04 02:01:06;;;;;;;;;;;;;;;-6.84;81.00;98578.88;5004846;28;19929;-78
2023/12/04 02:03:32;;;;;;;;;;;;;;;-6.84;80.55;98584.19;5021232;28;19968;-78
2023/12/04 02:06:00;;;;;;;;;;;;;;;-6.89;79.96;98581.25;5003814;28;19929;-78
2023/12/04 02:08:26;;;;;;;;;;;;;;;-6.98;80.19;98583.22;5024737;28;20012;-78
2023/12/04 02:10:54;;;;;;;;;;;;;;;-7.02;80.40;98585.47;5021359;28;19975;-77
2023/12/04 02:13:20;;;;;;;;;;;;;;;-7.10;80.16;98592.72;5021596;28;19933;-77
2023/12/04 02:15:48;;;;;;;;;;;;;;;-7.13;80.68;98601.91;5021614;28;20374;-77
2023/12/04 02:18:15;;;;;;;;;;;;;;;-7.13;80.78;98602.72;5023225;28;19929;-77
2023/12/04 02:21:01;;;;;;;;;;;;;;;-7.14;80.85;98601.06;5004417;28;19929;-78
2023/12/04 02:23:28;;;;;;;;;;;;;;;-7.12;80.97;98616.84;5023470;28;20446;-79
2023/12/04 02:25:59;;;;;;;;;;;;;;;-7.09;80.88;98619.09;5038085;28;19929;-77
2023/12/04 02:28:27;;;;;;;;;;;;;;;-7.09;80.55;98624.44;5022273;28;19929;-78
2023/12/04 02:30:53;;;;;;;;;;;;;;;-7.12;80.69;98625.63;5021362;28;20173;-77
2023/12/04 02:33:22;;;;;;;;;;;;;;;-7.14;80.10;98617.00;5025105;28;19999;-78
2023/12/04 02:35:50;;;;;;;;;;;;;;;-7.22;80.60;98624.28;5017342;28;20071;-76
2023/12/04 02:38:16;;;;;;;;;;;;;;;-7.28;81.47;98628.50;5003256;28;19929;-77
2023/12/04 02:40:42;;;;;;;;;;;;;;;-7.30;82.01;98625.22;5021581;28;19943;-77
2023/12/04 02:43:10;;;;;;;;;;;;;;;-7.29;82.16;98619.72;5022459;28;19929;-75
2023/12/04 02:45:36;;;;;;;;;;;;;;;-7.25;81.36;98630.81;5024771;28;20404;-79
2023/12/04 02:48:02;;;;;;;;;;;;;;;-7.27;80.90;98622.19;5004555;28;20032;-79
2023/12/04 02:50:28;;;;;;;;;;;;;;;-7.29;80.51;98618.91;5025289;28;19929;-79
2023/12/04 02:52:54;;;;;;;;;;;;;;;-7.28;80.36;98626.69;5021312;28;19933;-78
2023/12/04 02:55:20;;;;;;;;;;;;;;;-7.29;80.28;98633.00;5021323;28;19955;-79
2023/12/04 02:57:46;;;;;;;;;;;;;;;-7.31;79.97;98644.81;5021756;28;20288;-77
2023/12/04 03:00:14;;;;;;;;;;;;;;;-7.35;80.39;98655.00;5021869;28;20473;-76
2023/12/04 03:02:40;;;;;;;;;;;;;;;-7.36;80.01;98655.19;5006311;28;19929;-79
2023/12/04 03:05:06;;;;;;;;;;;;;;;-7.39;79.93;98661.69;5005973;28;19929;-80
2023/12/04 03:07:31;;;;;;;;;;;;;;;-7.39;80.41;98663.53;5021894;28;19967;-80
2023/12/04 03:09:57;;;;;;;;;;;;;;;-7.36;80.40;98673.78;5019247;28;19940;-80
2023/12/04 03:12:23;;;;;;;;;;;;;;;-7.33;80.32;98668.09;5021331;28;19933;-79
2023/12/04 03:14:49;;;;;;;;;;;;;;;-7.34;79.66;98677.91;5022590;28;20316;-79
2023/12/04 03:17:16;;;;;;;;;;;;;;;-7.37;79.21;98691.56;5020871;28;19936;-79
2023/12/04 03:19:42;;;;;;;;;;;;;;;-7.41;78.85;98706.22;5020672;28;20722;-81
2023/12/04 03:22:08;;;;;;;;;;;;;;;-7.33;78.76;98711.44;5020561;28;19929;-80
2023/12/04 03:24:34;;;;;;;;;;;;;;;-7.27;78.64;98715.16;5004059;28;19933;-80
2023/12/04 03:27:00;;;;;;;;;;;;;;;-7.23;78.64;98724.44;5021514;28;19936;-80
2023/12/04 03:29:26;;;;;;;;;;;;;;;-7.27;78.59;98716.00;5020699;28;19985;-80
2023/12/04 03:31:52;;;;;;;;;;;;;;;-7.24;78.65;98733.41;5022759;28;20486;-82
2023/12/04 03:34:19;;;;;;;;;;;;;;;-7.23;78.39;98731.56;5025409;28;19968;-80
2023/12/04 03:36:45;;;;;;;;;;;;;;;-7.19;78.49;98743.47;5022245;28;19929;-77
2023/12/04 03:39:11;;;;;;;;;;;;;;;-7.21;78.58;98745.50;5024052;28;19951;-80
2023/12/04 03:41:37;;;;;;;;;;;;;;;-7.18;78.69;98751.28;5021323;28;20305;-80
2023/12/04 03:44:03;;;;;;;;;;;;;;;-7.09;78.76;98767.94;5004312;28;19930;-81
2023/12/04 03:46:29;;;;;;;;;;;;;;;-7.06;78.72;98762.25;5002696;28;20027;-80
2023/12/04 03:48:55;;;;;;;;;;;;;;;-7.16;78.99;98767.84;4995376;28;19929;-80
2023/12/04 03:51:22;;;;;;;;;;;;;;;-7.29;79.44;98772.97;5021698;28;19975;-80
2023/12/04 03:53:48;;;;;;;;;;;;;;;-7.41;81.55;98808.00;5021763;28;20027;-80
2023/12/04 03:56:14;;;;;;;;;;;;;;;-7.47;83.65;98797.28;5022469;28;20389;-79
2023/12/04 03:58:39;;;;;;;;;;;;;;;-7.54;84.86;98797.16;5024558;28;20430;-79
2023/12/04 04:01:06;;;;;;;;;;;;;;;-7.56;85.35;98821.25;5003590;28;19996;-80
2023/12/04 04:03:31;;;;;;;;;;;;;;;-7.58;85.55;98839.19;5020775;28;19959;-76
2023/12/04 04:05:57;;;;;;;;;;;;;;;-7.65;84.45;98817.00;5018946;28;19933;-76
2023/12/04 04:08:25;;;;;;;;;;;;;;;-7.74;84.53;98824.22;5021500;28;21394;-79
2023/12/04 04:10:51;;;;;;;;;;;;;;;-7.78;85.25;98836.22;5019964;28;19929;-78
2023/12/04 04:13:17;;;;;;;;;;;;;;;-7.77;85.21;98845.00;5019913;28;19929;-79
2023/12/04 04:15:43;;;;;;;;;;;;;;;-7.81;84.74;98841.88;5021805;28;19937;-76
2023/12/04 04:18:09;;;;;;;;;;;;;;;-7.89;86.88;98844.59;5021787;28;19929;-75
2023/12/04 04:20:35;;;;;;;;;;;;;;;-7.94;88.19;98849.63;5021026;28;19976;-76
2023/12/04 04:23:01;;;;;;;;;;;;;;;-7.95;89.15;98851.47;5003828;28;19935;-75
2023/12/04 04:25:28;;;;;;;;;;;;;;;-7.90;89.71;98859.72;5020487;28;19929;-75
2023/12/04 04:27:54;;;;;;;;;;;;;;;-7.85;88.47;98851.22;5018073;28;20043;-75
2023/12/04 04:30:20;;;;;;;;;;;;;;;-7.91;89.33;98863.38;5024408;28;20036;-75
2023/12/04 04:32:46;;;;;;;;;;;;;;;-7.90;88.88;98867.66;5025680;28;19937;-76
2023/12/04 04:35:12;;;;;;;;;;;;;;;-7.90;89.54;98865.03;5026850;28;19929;-75
2023/12/04 04:37:38;;;;;;;;;;;;;;;-7.80;89.73;98861.28;5023586;28;20480;-79
2023/12/04 04:40:04;;;;;;;;;;;;;;;-7.69;90.04;98871.47;5011478;28;20023;-80
2023/12/04 04:42:32;;;;;;;;;;;;;;;-7.64;88.75;98877.09;5020927;28;19933;-79
2023/12/04 04:44:58;;;;;;;;;;;;;;;-7.85;88.77;98841.41;5007037;28;19969;-79
2023/12/04 04:47:24;;;;;;;;;;;;;;;-7.60;88.69;98873.06;5024472;28;19976;-81
2023/12/04 04:49:50;;;;;;;;;;;;;;;-7.56;88.13;98879.66;5022999;28;19929;-80
2023/12/04 04:52:16;;;;;;;;;;;;;;;-7.56;87.43;98877.00;5006353;28;20024;-80
2023/12/04 04:54:42;;;;;;;;;;;;;;;-7.55;87.16;98873.34;5023761;28;19944;-81
2023/12/04 04:57:13;;;;;;;;;;;;;;;-7.56;86.57;98870.88;5022667;28;20007;-80
2023/12/04 04:59:41;;;;;;;;;;;;;;;-7.68;87.27;98889.06;4990431;28;20415;-79
2023/12/04 05:02:07;;;;;;;;;;;;;;;-7.63;88.28;98886.72;5023289;28;19936;-80
2023/12/04 05:04:33;;;;;;;;;;;;;;;-7.59;88.76;98895.97;5023594;28;19929;-80
2023/12/04 05:06:59;;;;;;;;;;;;;;;-7.55;88.55;98891.94;5023839;28;19929;-80
2023/12/04 05:09:28;;;;;;;;;;;;;;;-7.61;87.46;98894.47;5022425;28;19933;-80
2023/12/04 05:11:54;;;;;;;;;;;;;;;-7.59;87.32;98897.78;5025653;28;19929;-79
2023/12/04 05:14:20;;;;;;;;;;;;;;;-7.60;87.41;98910.25;5025075;28;19982;-76
2023/12/04 05:16:47;;;;;;;;;;;;;;;-7.59;87.26;98903.09;5025682;28;19929;-74
2023/12/04 05:19:13;;;;;;;;;;;;;;;-7.57;87.98;98909.88;5023941;28;20319;-75
2023/12/04 05:21:39;;;;;;;;;;;;;;;-7.57;87.71;98907.22;5024068;28;19929;-75
2023/12/04 05:24:05;;;;;;;;;;;;;;;-7.58;88.10;98905.59;5022851;28;19929;-75
2023/12/04 05:26:31;;;;;;;;;;;;;;;-7.65;88.31;98903.81;5006098;28;19977;-75
2023/12/04 05:28:57;;;;;;;;;;;;;;;-7.55;88.33;98923.00;5011339;28;19929;-76
2023/12/04 05:31:23;;;;;;;;;;;;;;;-7.50;88.58;98915.31;5007465;28;19929;-76
2023/12/04 05:33:51;;;;;;;;;;;;;;;-7.44;87.40;98924.41;5019591;28;20374;-76
2023/12/04 05:36:17;;;;;;;;;;;;;;;-7.42;87.10;98933.00;5001999;28;19933;-76
2023/12/04 05:38:43;;;;;;;;;;;;;;;-7.43;89.01;98931.34;5009011;28;19929;-76
2023/12/04 05:41:09;;;;;;;;;;;;;;;-7.42;89.64;98938.31;5013564;28;19973;-76
2023/12/04 05:43:35;;;;;;;;;;;;;;;-7.38;90.18;98942.25;5008547;28;19935;-76
2023/12/04 05:46:00;;;;;;;;;;;;;;;-7.29;90.30;98941.19;5016583;28;19929;-76
2023/12/04 05:48:27;;;;;;;;;;;;;;;-7.27;89.48;98951.63;5017499;28;20308;-77
2023/12/04 05:50:54;;;;;;;;;;;;;;;-7.27;89.29;98962.25;5017056;28;20035;-77
2023/12/04 05:53:20;;;;;;;;;;;;;;;-7.29;88.40;98965.09;5016838;28;19929;-76
2023/12/04 05:55:46;;;;;;;;;;;;;;;-7.32;88.14;98976.09;5022315;28;19929;-76
2023/12/04 05:58:12;;;;;;;;;;;;;;;-7.32;88.11;98976.09;4989003;28;19933;-76
2023/12/04 06:00:41;;;;;;;;;;;;;;;-7.28;88.80;98977.38;5024064;28;19929;-76
2023/12/04 06:03:10;;;;;;;;;;;;;;;-7.20;87.84;98989.78;5027569;28;19972;-76
2023/12/04 06:05:37;;;;;;;;;;;;;;;-7.26;86.95;98996.63;5022958;28;19929;-76
2023/12/04 06:08:05;;;;;;;;;;;;;;;-7.33;86.99;98993.03;5016973;28;19940;-76
2023/12/04 06:10:30;;;;;;;;;;;;;;;-7.23;87.16;99014.06;5031889;28;19957;-75
2023/12/04 06:12:56;;;;;;;;;;;;;;;-7.25;86.86;99010.75;5033317;28;19929;-75
2023/12/04 06:15:22;;;;;;;;;;;;;;;-7.25;86.56;99018.72;5013120;28;20293;-76
2023/12/04 06:17:48;;;;;;;;;;;;;;;-7.25;85.76;99018.72;5007793;28;19963;-77
2023/12/04 06:20:14;;;;;;;;;;;;;;;-7.28;85.00;99016.41;5020211;28;19937;-76
2023/12/04 06:22:40;;;;;;;;;;;;;;;-7.29;84.80;99020.06;5015317;28;19929;-77
2023/12/04 06:25:08;;;;;;;;;;;;;;;-7.29;84.61;99020.91;5005009;28;20031;-77
2023/12/04 06:27:35;;;;;;;;;;;;;;;-7.30;84.04;99016.59;5022439;28;19960;-77
2023/12/04 06:30:01;;;;;;;;;;;;;;;-7.23;83.62;99032.66;5037025;28;19935;-76
2023/12/04 06:32:29;;;;;;;;;;;;;;;-7.26;83.94;99033.81;5024084;28;19939;-76
2023/12/04 06:34:55;;;;;;;;;;;;;;;-7.35;84.94;99032.22;5022685;28;20455;-76
2023/12/04 06:37:21;;;;;;;;;;;;;;;-7.33;85.74;99034.72;5021183;28;20417;-76
2023/12/04 06:39:48;;;;;;;;;;;;;;;-7.26;86.08;99044.47;5006962;28;19936;-76
2023/12/04 06:42:16;;;;;;;;;;;;;;;-7.17;85.98;99045.22;5025627;28;20204;-76
2023/12/04 06:44:42;;;;;;;;;;;;;;;-7.13;85.56;99051.81;4995236;28;19929;-75
2023/12/04 06:47:08;;;;;;;;;;;;;;;-7.24;85.28;99041.63;5006916;28;19936;-75
2023/12/04 06:49:34;;;;;;;;;;;;;;;-7.27;85.89;99049.94;5023092;28;19977;-75
2023/12/04 06:52:00;;;;;;;;;;;;;;;-7.31;85.67;99046.81;5021927;28;19960;-75
2023/12/04 06:54:26;;;;;;;;;;;;;;;-7.33;85.66;99050.66;5005422;28;19963;-76
2023/12/04 06:56:52;;;;;;;;;;;;;;;-7.32;86.36;99049.66;5022189;28;19929;-76
2023/12/04 06:59:20;;;;;;;;;;;;;;;-7.23;86.92;99053.06;5020741;28;20324;-76
2023/12/04 07:01:45;;;;;;;;;;;;;;;-7.17;86.33;99061.16;5024198;28;19991;-75
2023/12/04 07:04:11;;;;;;;;;;;;;;;-7.11;86.07;99056.97;5020380;28;19933;-76
2023/12/04 07:06:38;;;;;;;;;;;;;;;-7.05;85.58;99063.41;5020209;28;19957;-77
2023/12/04 07:09:04;;;;;;;;;;;;;;;-7.03;84.95;99070.19;5004202;28;19936;-76
2023/12/04 07:11:30;;;;;;;;;;;;;;;-7.07;84.06;99073.41;5022477;28;20455;-76
2023/12/04 07:13:56;;;;;;;;;;;;;;;-7.16;83.35;99080.59;5021217;28;19964;-76
2023/12/04 07:16:23;;;;;;;;;;;;;;;-7.23;83.54;99090.28;5021697;28;19973;-77
2023/12/04 07:18:50;;;;;;;;;;;;;;;-7.19;83.80;99084.44;5022268;28;20060;-76
2023/12/04 07:21:17;;;;;;;;;;;;;;;-7.17;83.12;99086.94;5021064;28;19936;-76
2023/12/04 07:23:43;;;;;;;;;;;;;;;-7.17;82.55;99089.59;4986479;28;19928;-77
2023/12/04 07:26:09;;;;;;;;;;;;;;;-7.16;82.33;99093.91;5003426;28;20452;-76
2023/12/04 07:28:37;;;;;;;;;;;;;;;-7.07;82.55;99103.44;5024353;28;19935;-76
2023/12/04 07:31:03;;;;;;;;;;;;;;;-7.07;81.20;99105.28;4991164;28;20301;-76
2023/12/04 07:33:31;;;;;;;;;;;;;;;-7.07;81.39;99106.09;5003374;28;20154;-77
2023/12/04 07:35:56;;;;;;;;;;;;;;;-7.04;80.39;99120.88;5017731;28;19979;-77
2023/12/04 07:38:22;;;;;;;;;;;;;;;-7.15;80.70;99116.81;5022770;28;19952;-76
2023/12/04 07:40:48;;;;;;;;;;;;;;;-7.17;81.10;99127.59;5022076;28;20313;-75
2023/12/04 07:43:14;;;;;;;;;;;;;;;-7.21;81.56;99125.47;5020887;28;19986;-76
2023/12/04 07:45:41;;;;;;;;;;;;;;;-7.18;81.61;99119.78;5021537;28;19932;-75
2023/12/04 07:48:07;;;;;;;;;;;;;;;-7.17;81.23;99124.13;5018538;28;19929;-76
2023/12/04 07:50:35;;;;;;;;;;;;;;;-7.14;80.84;99131.75;5023311;28;20146;-76
2023/12/04 07:53:00;;;;;;;;;;;;;;;-7.12;80.86;99129.75;5020132;28;19929;-76
2023/12/04 07:55:26;;;;;;;;;;;;;;;-7.17;81.81;99137.41;5022206;28;19929;-76
2023/12/04 07:57:52;;;;;;;;;;;;;;;-7.27;83.06;99146.44;5022274;28;19929;-75
2023/12/04 08:00:19;;;;;;;;;;;;;;;-7.27;84.43;99141.13;5023991;28;19936;-76
2023/12/04 08:02:45;;;;;;;;;;;;;;;-7.23;84.58;99149.56;5023154;28;20403;-76
2023/12/04 08:05:12;;;;;;;;;;;;;;;-7.19;84.58;99145.56;5008022;28;19933;-76
2023/12/04 08:07:40;;;;;;;;;;;;;;;-7.26;83.86;99155.22;5017058;28;20466;-76
2023/12/04 08:10:06;;;;;;;;;;;;;;;-7.29;83.74;99150.25;5020718;28;19929;-76
2023/12/04 08:12:33;;;;;;;;;;;;;;;-7.31;84.09;99153.09;5028718;28;19936;-77
2023/12/04 08:15:01;;;;;;;;;;;;;;;-7.23;84.23;99152.22;5017575;28;20032;-76
2023/12/04 08:17:30;;;;;;;;;;;;;;;-7.27;82.56;99153.56;5021050;28;19958;-77
2023/12/04 08:19:56;;;;;;;;;;;;;;;-7.29;82.11;99155.56;5010744;28;20107;-75
2023/12/04 08:22:22;;;;;;;;;;;;;;;-7.32;82.23;99167.38;5022145;28;20047;-74
2023/12/04 08:24:50;;;;;;;;;;;;;;;-7.33;82.13;99162.25;5022926;28;20327;-73
2023/12/04 08:27:15;;;;;;;;;;;;;;;-7.30;83.57;99181.31;5023909;28;20495;-73
2023/12/04 08:29:41;;;;;;;;;;;;;;;-7.30;84.92;99162.72;5022654;28;20198;-73
2023/12/04 08:32:07;;;;;;;;;;;;;;;-7.31;85.40;99179.66;5006622;28;19929;-73
2023/12/04 08:34:33;;;;;;;;;;;;;;;-7.23;86.11;99170.00;5040605;28;20423;-73
2023/12/04 08:36:59;;;;;;;;;;;;;;;-7.19;86.11;99176.59;5026454;28;20494;-73
2023/12/04 08:39:26;;;;;;;;;;;;;;;-7.19;85.09;99185.41;5012064;28;19936;-73
2023/12/04 08:41:54;;;;;;;;;;;;;;;-7.26;85.11;99185.28;5018625;28;19951;-73
2023/12/04 08:44:19;;;;;;;;;;;;;;;-7.27;84.59;99183.63;5006071;28;19941;-73
2023/12/04 08:46:45;;;;;;;;;;;;;;;-7.21;84.33;99197.22;5023584;28;19929;-73
2023/12/04 08:49:11;;;;;;;;;;;;;;;-7.14;84.13;99188.38;5024414;28;20323;-73
2023/12/04 08:51:37;;;;;;;;;;;;;;;-7.05;83.36;99191.81;5009946;28;20307;-74
2023/12/04 08:54:04;;;;;;;;;;;;;;;-6.99;82.83;99198.25;5024100;28;19983;-73
2023/12/04 08:56:30;;;;;;;;;;;;;;;-6.94;82.76;99197.72;5023376;28;20352;-75
2023/12/04 08:58:57;;;;;;;;;;;;;;;-6.90;82.34;99207.00;5004003;28;19956;-75
2023/12/04 09:01:23;;;;;;;;;;;;;;;-6.86;81.62;99201.16;5036296;28;19991;-74
2023/12/04 09:03:49;;;;;;;;;;;;;;;-6.85;80.65;99202.81;5005510;28;19929;-74
2023/12/04 09:06:15;;;;;;;;;;;;;;;-6.84;80.42;99198.34;5021615;28;19929;-75
2023/12/04 09:08:41;;;;;;;;;;;;;;;-6.67;80.77;99198.22;5019372;28;20031;-75
2023/12/04 09:11:08;;;;;;;;;;;;;;;-6.56;80.50;99203.97;5009243;28;19933;-74
2023/12/04 09:13:34;;;;;;;;;;;;;;;-6.60;79.72;99202.66;5023038;28;19936;-73
2023/12/04 09:16:02;;;;;;;;;;;;;;;-6.62;80.08;99207.34;5022214;28;19972;-73
2023/12/04 09:18:27;;;;;;;;;;;;;;;-6.67;79.59;99199.03;5022199;28;19932;-73
2023/12/04 09:20:53;;;;;;;;;;;;;;;-6.61;79.73;99210.81;5023362;28;20339;-73
2023/12/04 09:23:19;;;;;;;;;;;;;;;-6.50;80.07;99206.91;5023079;28;19930;-73
2023/12/04 09:25:45;;;;;;;;;;;;;;;-6.56;80.05;99213.75;5023986;28;20248;-73
2023/12/04 09:28:12;;;;;;;;;;;;;;;-6.55;80.58;99207.47;5025542;28;19936;-73
2023/12/04 09:30:39;;;;;;;;;;;;;;;-6.49;80.77;99220.03;5006833;28;19929;-73
2023/12/04 09:33:06;;;;;;;;;;;;;;;-6.57;79.77;99225.41;5024528;28;19933;-72
2023/12/04 09:35:34;;;;;;;;;;;;;;;-6.62;79.73;99220.63;5024867;28;20412;-74
2023/12/04 09:38:02;;;;;;;;;;;;;;;-6.57;78.93;99226.25;4990547;28;19952;-74
2023/12/04 09:40:28;;;;;;;;;;;;;;;-6.65;79.24;99223.63;5020295;28;19967;-73
2023/12/04 09:42:54;;;;;;;;;;;;;;;-6.65;78.83;99231.59;5020429;28;20380;-73
2023/12/04 09:45:20;;;;;;;;;;;;;;;-6.84;80.28;99239.03;5017008;28;19930;-73
2023/12/04 09:47:47;;;;;;;;;;;;;;;-6.90;81.15;99238.91;5029368;28;20032;-73
2023/12/04 09:50:16;;;;;;;;;;;;;;;-6.90;82.25;99241.56;5021361;28;19936;-73
2023/12/04 09:52:42;;;;;;;;;;;;;;;-6.89;81.87;99248.53;5006092;28;20060;-73
2023/12/04 09:55:08;;;;;;;;;;;;;;;-6.90;81.45;99252.19;5021269;28;20471;-72
2023/12/04 09:57:35;;;;;;;;;;;;;;;-6.89;80.57;99253.84;5023264;28;20400;-73
2023/12/04 10:00:02;;;;;;;;;;;;;;;-6.99;81.01;99246.94;5018127;28;20017;-72
2023/12/04 10:02:38;;;;;;;;;;;;;;;-6.89;78.91;99260.03;5004647;28;19933;-72
2023/12/04 10:05:05;;;;;;;;;;;;;;;-6.94;80.65;99258.88;5021523;28;20035;-73
2023/12/04 10:07:33;;;;;;;;;;;;;;;-6.88;80.94;99264.34;5020271;28;19929;-72
2023/12/04 10:09:59;;;;;;;;;;;;;;;-6.84;79.98;99281.59;5020414;28;19929;-74
2023/12/04 10:12:26;;;;;;;;;;;;;;;-6.89;79.29;99281.28;5025177;28;20044;-74
2023/12/04 10:15:03;;;;;;;;;;;;;;;-6.91;78.83;99274.47;5001189;28;19929;-72
2023/12/04 10:17:32;;;;;;;;;;;;;;;-7.00;78.61;99271.88;5001167;28;19949;-73
2023/12/04 10:20:07;;;;;;;;;;;;;;;-6.99;78.63;99283.31;4996395;28;19960;-73
2023/12/04 10:22:34;;;;;;;;;;;;;;;-6.98;78.75;99288.47;5017342;28;19959;-73
2023/12/04 10:25:13;;;;;;;;;;;;;;;-6.98;78.62;99277.84;5004983;28;20364;-73
2023/12/04 10:27:39;;;;;;;;;;;;;;;-6.91;78.10;99293.09;5021347;28;20401;-73
2023/12/04 10:30:07;;;;;;;;;;;;;;;-6.90;77.00;99300.91;5024281;28;19944;-73
2023/12/04 10:32:36;;;;;;;;;;;;;;;-6.96;77.29;99308.75;5023262;28;19999;-73
2023/12/04 10:35:02;;;;;;;;;;;;;;;-6.99;76.68;99308.09;4998609;28;20400;-72
2023/12/04 10:37:29;;;;;;;;;;;;;;;-7.05;76.20;99310.59;5025270;28;19929;-72
2023/12/04 10:39:57;;;;;;;;;;;;;;;-7.07;76.22;99316.09;5023273;28;19931;-74
2023/12/04 10:42:24;;;;;;;;;;;;;;;-7.09;76.04;99320.75;5024941;28;19975;-73
2023/12/04 10:44:50;;;;;;;;;;;;;;;-7.04;76.05;99331.69;5023369;28;19929;-73
2023/12/04 10:47:17;;;;;;;;;;;;;;;-7.06;76.03;99331.03;5024164;28;20326;-73
2023/12/04 10:49:43;;;;;;;;;;;;;;;-7.09;77.04;99325.25;5022242;28;20277;-73
2023/12/04 10:52:10;;;;;;;;;;;;;;;-7.02;76.71;99329.72;5005761;28;19965;-73
2023/12/04 10:54:36;;;;;;;;;;;;;;;-6.95;76.17;99331.66;5005353;28;19929;-72
2023/12/04 10:57:05;;;;;;;;;;;;;;;-6.93;76.79;99335.81;5024803;28;19936;-73
2023/12/04 10:59:36;;;;;;;;;;;;;;;-6.85;76.65;99340.28;5021988;28;20413;-73
2023/12/04 11:02:04;;;;;;;;;;;;;;;-6.89;75.99;99338.94;5023254;28;20025;-73
2023/12/04 11:04:31;;;;;;;;;;;;;;;-7.02;76.89;99339.50;5023288;28;20035;-73
2023/12/04 11:06:58;;;;;;;;;;;;;;;-7.01;77.09;99335.84;5004625;28;20479;-73
2023/12/04 11:09:26;;;;;;;;;;;;;;;-7.00;76.98;99335.69;5004211;28;20039;-73
2023/12/04 11:11:56;;;;;;;;;;;;;;;-7.01;77.71;99347.31;5016932;28;19929;-73
2023/12/04 11:14:25;;;;;;;;;;;;;;;-6.99;77.13;99349.78;5002877;28;20259;-73
2023/12/04 11:16:56;;;;;;;;;;;;;;;-6.96;76.89;99343.31;5003071;28;19929;-73
2023/12/04 11:19:28;;;;;;;;;;;;;;;-6.91;77.15;99349.75;5021470;28;20314;-74
2023/12/04 11:21:57;;;;;;;;;;;;;;;-6.90;77.01;99356.75;5017091;28;19930;-75
2023/12/04 11:24:23;;;;;;;;;;;;;;;-7.00;76.43;99356.09;4998906;28;20027;-74
2023/12/04 11:26:49;;;;;;;;;;;;;;;-7.04;77.47;99360.91;5020237;28;19933;-74
2023/12/04 11:29:15;;;;;;;;;;;;;;;-7.01;78.12;99351.78;5022088;28;19936;-74
2023/12/04 11:31:43;;;;;;;;;;;;;;;-6.92;77.92;99353.44;5024257;28;19937;-74
2023/12/04 11:34:11;;;;;;;;;;;;;;;-6.92;76.57;99352.59;5020470;28;19929;-74
2023/12/04 11:36:38;;;;;;;;;;;;;;;-6.96;76.29;99359.25;5019589;28;19929;-75
2023/12/04 11:39:09;;;;;;;;;;;;;;;-7.02;75.63;99358.94;5022203;28;19929;-74
2023/12/04 11:41:35;;;;;;;;;;;;;;;-7.06;75.90;99364.78;5022098;28;19940;-74
2023/12/04 11:44:02;;;;;;;;;;;;;;;-7.12;75.89;99369.75;5023221;28;19933;-74
2023/12/04 11:46:30;;;;;;;;;;;;;;;-7.12;76.54;99375.06;5022272;28;19984;-75
2023/12/04 11:49:17;;;;;;;;;;;;;;;-7.14;77.03;99365.63;5025615;28;20031;-75
2023/12/04 11:51:48;;;;;;;;;;;;;;;-7.02;76.39;99372.25;5006947;28;19928;-74
2023/12/04 11:54:15;;;;;;;;;;;;;;;-6.95;76.17;99374.19;5024586;28;19936;-74
2023/12/04 11:56:41;;;;;;;;;;;;;;;-6.91;76.22;99379.00;5020670;28;19929;-74
2023/12/04 11:59:07;;;;;;;;;;;;;;;-6.90;75.36;99388.66;5027115;28;19945;-74
2023/12/04 12:01:33;;;;;;;;;;;;;;;-6.95;75.58;99385.66;5014637;28;19975;-74
2023/12/04 12:04:04;;;;;;;;;;;;;;;-6.99;75.12;99410.91;5009577;28;20392;-74
2023/12/04 12:06:30;;;;;;;;;;;;;;;-7.06;76.16;99405.44;5023388;28;19933;-75
2023/12/04 12:08:56;;;;;;;;;;;;;;;-7.10;76.35;99408.63;5024447;28;19929;-74
2023/12/04 12:11:23;;;;;;;;;;;;;;;-7.10;76.53;99409.47;5022259;28;19932;-74
2023/12/04 12:13:49;;;;;;;;;;;;;;;-7.10;76.70;99412.13;5042848;28;19941;-74
2023/12/04 12:16:15;;;;;;;;;;;;;;;-7.14;76.58;99411.63;5023420;28;20447;-74
2023/12/04 12:18:41;;;;;;;;;;;;;;;-7.14;76.63;99430.22;5024620;28;19936;-74
2023/12/04 12:21:08;;;;;;;;;;;;;;;-7.17;79.05;99424.44;4989442;28;20416;-74
2023/12/04 12:23:34;;;;;;;;;;;;;;;-7.28;80.33;99428.25;5014120;28;19960;-74
2023/12/04 12:26:00;;;;;;;;;;;;;;;-7.32;82.02;99417.16;5015921;28;19928;-74
2023/12/04 12:28:26;;;;;;;;;;;;;;;-7.29;81.96;99423.94;5006506;28;20468;-74
2023/12/04 12:30:55;;;;;;;;;;;;;;;-7.28;81.76;99438.88;5025718;28;19938;-73
2023/12/04 12:33:22;;;;;;;;;;;;;;;-7.28;81.45;99429.09;5009191;28;19944;-73
2023/12/04 12:35:49;;;;;;;;;;;;;;;-7.26;81.63;99411.16;5006429;28;20032;-73
2023/12/04 12:38:16;;;;;;;;;;;;;;;-7.20;80.87;99422.94;5008898;28;19929;-73
2023/12/04 12:40:42;;;;;;;;;;;;;;;-7.25;80.17;99427.94;5006073;28;19933;-73
2023/12/04 12:43:09;;;;;;;;;;;;;;;-7.29;80.41;99424.78;5026635;28;19956;-73
2023/12/04 12:45:41;;;;;;;;;;;;;;;-7.29;79.32;99426.59;5036774;28;19936;-73